Time;durP1;ratioP1;P1;durP2;ratioP2;P2;SDS_P1;SDS_P2;PMS_P1;PMS_P2;Temp;Humidity;BMP_temperature;BMP_pressure;BME280_temperature;BME280_humidity;BME280_pressure;Samples;Min_cycle;Max_cycle;Signal;HPM_P1;HPM_P2
2022/09/26 00:00:35;;;;;;;4.53;2.80;;;11.20;99.90;;;;;;5074879;28;20163;-70
2022/09/26 00:03:01;;;;;;;4.78;2.35;;;11.20;99.90;;;;;;5074656;28;20115;-70
2022/09/26 00:05:26;;;;;;;3.42;2.88;;;11.20;99.90;;;;;;5074608;28;20047;-70
2022/09/26 00:07:52;;;;;;;3.22;2.50;;;11.20;99.90;;;;;;5074710;28;20048;-70
2022/09/26 00:10:17;;;;;;;4.30;2.80;;;11.20;99.90;;;;;;5074640;28;20072;-70
2022/09/26 00:12:44;;;;;;;4.32;2.63;;;11.20;99.90;;;;;;5074261;28;20102;-71
2022/09/26 00:15:10;;;;;;;4.82;3.10;;;11.10;99.90;;;;;;5074509;28;20040;-70
2022/09/26 00:17:36;;;;;;;7.32;2.42;;;11.10;99.90;;;;;;5074452;28;20051;-70
2022/09/26 00:20:03;;;;;;;5.15;2.90;;;11.10;99.90;;;;;;5074367;28;20115;-70
2022/09/26 00:22:28;;;;;;;4.85;3.10;;;11.10;99.90;;;;;;5074159;28;20044;-70
2022/09/26 00:24:54;;;;;;;4.88;2.60;;;11.10;99.90;;;;;;5074181;28;20457;-70
2022/09/26 00:27:20;;;;;;;5.43;2.85;;;11.10;99.90;;;;;;5074059;28;20115;-70
2022/09/26 00:29:46;;;;;;;4.13;3.10;;;11.10;99.90;;;;;;5074225;28;20059;-70
2022/09/26 00:32:12;;;;;;;5.15;2.88;;;11.10;99.90;;;;;;5074157;28;20115;-70
2022/09/26 00:34:37;;;;;;;5.47;2.75;;;11.10;99.90;;;;;;5074026;28;20487;-71
2022/09/26 00:37:03;;;;;;;6.40;3.40;;;11.10;99.90;;;;;;5073806;28;20123;-71
2022/09/26 00:39:28;;;;;;;5.63;2.85;;;11.00;99.90;;;;;;5073724;28;20036;-70
2022/09/26 00:41:54;;;;;;;6.22;3.30;;;11.10;99.90;;;;;;5073176;28;20415;-70
2022/09/26 00:44:34;;;;;;;6.10;2.90;;;11.10;99.90;;;;;;5073875;28;20044;-70
2022/09/26 00:47:00;;;;;;;6.75;3.10;;;11.10;99.90;;;;;;5073869;28;20047;-70
2022/09/26 00:49:30;;;;;;;6.82;3.05;;;11.10;99.90;;;;;;5055837;28;20044;-70
2022/09/26 00:52:09;;;;;;;5.15;3.22;;;11.00;99.90;;;;;;5055865;28;20499;-70
2022/09/26 00:54:38;;;;;;;6.25;3.05;;;11.00;99.90;;;;;;5074184;28;20057;-70
2022/09/26 00:57:11;;;;;;;4.68;3.20;;;11.00;99.90;;;;;;5055896;28;20059;-70
2022/09/26 00:59:40;;;;;;;6.97;3.28;;;11.00;99.90;;;;;;5073946;28;20079;-70
2022/09/26 01:02:06;;;;;;;7.28;2.97;;;11.00;99.90;;;;;;5073591;28;20381;-70
2022/09/26 01:04:36;;;;;;;5.82;3.08;;;11.00;99.90;;;;;;5073463;28;20083;-70
2022/09/26 01:07:06;;;;;;;8.77;2.85;;;11.00;99.90;;;;;;5073362;28;20040;-70
2022/09/26 01:09:32;;;;;;;5.20;3.35;;;11.00;99.90;;;;;;5073608;28;20047;-70
2022/09/26 01:12:00;;;;;;;4.70;2.80;;;11.00;99.90;;;;;;5073553;28;20040;-70
2022/09/26 01:14:26;;;;;;;7.40;3.35;;;11.00;99.90;;;;;;5073398;28;20084;-70
2022/09/26 01:16:52;;;;;;;6.72;2.70;;;10.90;99.90;;;;;;5073402;28;20045;-70
2022/09/26 01:19:27;;;;;;;3.60;2.63;;;11.00;99.90;;;;;;5073640;28;20448;-70
2022/09/26 01:22:23;;;;;;;5.63;2.60;;;11.00;99.90;;;;;;5073640;28;20476;-70
2022/09/26 01:25:17;;;;;;;6.25;2.72;;;11.00;99.90;;;;;;5073271;28;20047;-70
2022/09/26 01:27:57;;;;;;;5.78;2.90;;;11.00;99.90;;;;;;5055211;28;20120;-70
2022/09/26 01:30:27;;;;;;;5.57;2.88;;;11.00;99.90;;;;;;5073424;28;20047;-70
2022/09/26 01:33:15;;;;;;;4.40;2.63;;;11.00;99.90;;;;;;5055432;28;20041;-70
2022/09/26 01:36:07;;;;;;;3.60;2.70;;;11.00;99.90;;;;;;5057470;28;20075;-70
2022/09/26 01:38:51;;;;;;;6.25;3.05;;;11.00;99.90;;;;;;5073427;28;20045;-70
2022/09/26 01:41:35;;;;;;;7.10;2.90;;;11.00;99.90;;;;;;5073321;28;20123;-70
2022/09/26 01:44:14;;;;;;;7.88;3.22;;;10.90;99.90;;;;;;5073075;28;20093;-70
2022/09/26 01:46:53;;;;;;;3.85;2.60;;;10.90;99.90;;;;;;5055214;28;20044;-70
2022/09/26 01:49:39;;;;;;;4.75;2.70;;;10.90;99.90;;;;;;5073206;28;20056;-70
2022/09/26 01:52:22;;;;;;;8.95;3.05;;;10.90;99.90;;;;;;5073552;28;20143;-70
2022/09/26 01:54:54;;;;;;;4.88;2.95;;;10.80;99.90;;;;;;5076956;28;20076;-70
2022/09/26 01:57:29;;;;;;;3.67;3.20;;;10.80;99.90;;;;;;5077238;28;20040;-70
2022/09/26 01:59:59;;;;;;;4.93;2.92;;;10.80;99.90;;;;;;5077245;28;20115;-70
2022/09/26 02:02:30;;;;;;;5.50;3.20;;;10.80;99.90;;;;;;5077024;28;20044;-70
2022/09/26 02:05:03;;;;;;;5.15;3.00;;;10.80;99.90;;;;;;5076915;28;20040;-70
2022/09/26 02:07:44;;;;;;;6.88;3.30;;;10.70;99.90;;;;;;5077486;28;20105;-70
2022/09/26 02:10:21;;;;;;;7.32;3.70;;;10.80;99.90;;;;;;5077011;28;20189;-70
2022/09/26 02:12:53;;;;;;;4.88;3.58;;;10.80;99.90;;;;;;5076813;28;20044;-69
2022/09/26 02:15:23;;;;;;;7.03;3.67;;;10.80;99.90;;;;;;5076931;28;20044;-70
2022/09/26 02:17:57;;;;;;;6.40;3.47;;;10.80;99.90;;;;;;5058880;28;20051;-70
2022/09/26 02:20:36;;;;;;;5.32;3.45;;;10.80;99.90;;;;;;5076768;28;20129;-70
2022/09/26 02:23:03;;;;;;;7.05;3.92;;;10.80;99.90;;;;;;5076717;28;20036;-69
2022/09/26 02:25:29;;;;;;;7.32;3.70;;;10.90;99.90;;;;;;5076495;28;20037;-70
2022/09/26 02:27:56;;;;;;;5.63;3.70;;;10.90;99.90;;;;;;5058489;28;20079;-70
2022/09/26 02:30:21;;;;;;;6.28;3.75;;;10.80;99.90;;;;;;5058316;28;20075;-70
2022/09/26 02:32:47;;;;;;;5.20;3.72;;;10.80;99.90;;;;;;5076484;28;20149;-70
2022/09/26 02:37:58;;;;;;;6.65;4.00;;;10.80;99.90;;;;;;5076470;28;20044;-70
2022/09/26 02:40:35;;;;;;;7.47;4.15;;;10.90;99.90;;;;;;5075909;28;20044;-70
2022/09/26 02:43:23;;;;;;;5.93;4.25;;;10.80;99.90;;;;;;5076121;28;20048;-70
2022/09/26 02:46:20;;;;;;;4.90;4.00;;;10.90;99.90;;;;;;5076061;28;20047;-70
2022/09/26 02:48:55;;;;;;;6.32;4.45;;;11.00;99.90;;;;;;5066031;28;20052;-71
2022/09/26 02:51:59;;;;;;;6.93;4.47;;;11.00;99.90;;;;;;5076286;28;20051;-71
2022/09/26 02:54:49;;;;;;;6.55;4.50;;;11.00;99.90;;;;;;5076138;28;20048;-70
2022/09/26 02:57:27;;;;;;;6.18;4.55;;;11.10;99.90;;;;;;5063745;28;20560;-70
2022/09/26 03:00:12;;;;;;;6.90;5.03;;;10.90;99.90;;;;;;5076221;28;20465;-70
2022/09/26 03:02:49;;;;;;;6.88;5.15;;;11.10;99.90;;;;;;5075624;28;20052;-70
2022/09/26 03:05:22;;;;;;;6.00;5.40;;;11.10;99.90;;;;;;5075681;28;20538;-70
2022/09/26 03:07:59;;;;;;;7.47;4.97;;;11.10;99.90;;;;;;5057619;28;20052;-70
2022/09/26 03:10:27;;;;;;;7.15;4.97;;;11.00;99.90;;;;;;5075862;28;20052;-70
2022/09/26 03:12:55;;;;;;;9.57;5.68;;;11.00;99.90;;;;;;5075653;28;20094;-70
2022/09/26 03:15:22;;;;;;;9.38;5.28;;;11.10;99.90;;;;;;5075580;28;20120;-70
2022/09/26 03:17:52;;;;;;;9.15;5.60;;;11.00;99.90;;;;;;5075494;28;20102;-70
2022/09/26 03:20:20;;;;;;;7.70;6.22;;;11.00;99.90;;;;;;5075677;28;20403;-70
2022/09/26 03:22:46;;;;;;;;;;;11.10;99.90;;;;;;5075694;28;20551;-70
2022/09/26 03:25:24;;;;;;;6.43;5.72;;;10.90;99.90;;;;;;5075707;28;20016;-70
2022/09/26 03:27:51;;;;;;;8.50;6.10;;;11.00;99.90;;;;;;5075634;28;20048;-70
2022/09/26 03:30:19;;;;;;;9.38;6.30;;;11.00;99.90;;;;;;5075254;28;20037;-69
2022/09/26 03:32:46;;;;;;;;;;;11.00;99.90;;;;;;5076137;28;20511;-70
2022/09/26 03:35:12;;;;;;;8.20;6.10;;;10.90;99.90;;;;;;5075386;28;19924;-70
2022/09/26 03:37:38;;;;;;;8.75;6.03;;;11.00;99.90;;;;;;5075302;28;20115;-70
2022/09/26 03:40:06;;;;;;;10.75;6.35;;;10.90;99.90;;;;;;5075350;28;20040;-70
2022/09/26 03:42:32;;;;;;;;;;;10.90;99.90;;;;;;5075336;28;20056;-70
2022/09/26 03:44:59;;;;;;;9.35;6.68;;;10.90;99.90;;;;;;5074954;28;20433;-70
2022/09/26 03:47:25;;;;;;;8.38;6.78;;;10.90;99.90;;;;;;5074819;28;20045;-70
2022/09/26 03:49:51;;;;;;;10.35;6.90;;;10.80;99.90;;;;;;5075067;28;20106;-70
2022/09/26 03:52:17;;;;;;;8.68;6.68;;;10.80;99.90;;;;;;5074765;28;20040;-70
2022/09/26 03:54:43;;;;;;;8.93;6.60;;;10.90;99.90;;;;;;5040261;28;20083;-69
2022/09/26 03:57:11;;;;;;;9.32;6.97;;;10.80;99.90;;;;;;5074806;28;20052;-70
2022/09/26 03:59:37;;;;;;;;;;;10.80;99.90;;;;;;5075049;28;20040;-70
2022/09/26 04:02:04;;;;;;;7.95;6.95;;;10.90;99.90;;;;;;5074502;28;20337;-70
2022/09/26 04:04:31;;;;;;;9.15;7.50;;;10.80;99.90;;;;;;5074479;28;20052;-70
2022/09/26 04:06:57;;;;;;;9.73;7.80;;;10.80;99.90;;;;;;5074603;28;20044;-70
2022/09/26 04:09:23;;;;;;;8.48;7.50;;;10.80;99.90;;;;;;5074733;28;20418;-70
2022/09/26 04:11:49;;;;;;;8.30;7.50;;;10.80;99.90;;;;;;5074433;28;20052;-70
2022/09/26 04:14:16;;;;;;;12.23;8.35;;;10.80;99.90;;;;;;5056251;28;20187;-70
2022/09/26 04:16:42;;;;;;;10.95;8.52;;;10.80;99.90;;;;;;5074106;28;20044;-70
2022/09/26 04:19:08;;;;;;;9.25;8.15;;;10.80;99.90;;;;;;5074188;28;20484;-70
2022/09/26 04:21:34;;;;;;;12.88;9.25;;;10.80;99.90;;;;;;5074510;28;20040;-70
2022/09/26 04:24:00;;;;;;;11.43;9.18;;;10.80;99.90;;;;;;5074157;28;20041;-69
2022/09/26 04:26:27;;;;;;;12.68;9.20;;;10.70;99.90;;;;;;5074151;28;20400;-70
2022/09/26 04:28:55;;;;;;;10.77;9.20;;;10.70;99.90;;;;;;5073975;28;20415;-70
2022/09/26 04:31:22;;;;;;;12.07;9.23;;;10.70;99.90;;;;;;5074213;28;20041;-70
2022/09/26 04:33:48;;;;;;;11.98;9.23;;;10.70;99.90;;;;;;5074322;28;20047;-70
2022/09/26 04:36:15;;;;;;;12.77;9.30;;;10.70;99.90;;;;;;5073958;28;20051;-69
2022/09/26 04:38:40;;;;;;;10.75;9.45;;;10.70;99.90;;;;;;5073969;28;20048;-69
2022/09/26 04:41:08;;;;;;;14.25;9.90;;;10.70;99.90;;;;;;5073919;28;20480;-70
2022/09/26 04:43:35;;;;;;;12.70;9.43;;;10.70;99.90;;;;;;5074148;28;20040;-70
2022/09/26 04:46:05;;;;;;;13.52;9.48;;;10.70;99.90;;;;;;5075414;28;20045;-72
2022/09/26 04:48:30;;;;;;;11.65;9.30;;;10.70;99.90;;;;;;5074166;28;20049;-69
2022/09/26 04:50:57;;;;;;;11.70;9.57;;;10.70;99.90;;;;;;5056190;28;20511;-69
2022/09/26 04:53:23;;;;;;;12.30;9.93;;;10.70;99.90;;;;;;5073750;28;20040;-69
2022/09/26 04:55:49;;;;;;;11.02;9.48;;;10.70;99.90;;;;;;5073614;28;20037;-70
2022/09/26 04:58:15;;;;;;;12.02;9.18;;;10.60;99.90;;;;;;5073384;28;20052;-69
2022/09/26 05:00:46;;;;;;;9.70;8.23;;;10.90;99.90;;;;;;5073699;28;20048;-70
2022/09/26 05:03:12;;;;;;;10.80;9.25;;;10.60;99.90;;;;;;5073568;28;20032;-70
2022/09/26 05:05:46;;;;;;;13.00;9.00;;;10.60;99.90;;;;;;5073443;28;20373;-70
2022/09/26 05:08:13;;;;;;;11.20;8.80;;;10.60;99.90;;;;;;5055614;28;20077;-70
2022/09/26 05:10:39;;;;;;;13.07;8.95;;;10.60;99.90;;;;;;5073313;28;20114;-70
2022/09/26 05:13:06;;;;;;;11.40;9.05;;;10.60;99.90;;;;;;5073520;28;20040;-69
2022/09/26 05:15:38;;;;;;;10.50;8.27;;;10.60;99.90;;;;;;5073503;28;20075;-69
2022/09/26 05:18:06;;;;;;;10.20;8.10;;;10.60;99.90;;;;;;5073554;28;20127;-69
2022/09/26 05:20:33;;;;;;;12.02;8.50;;;10.60;99.90;;;;;;5055275;28;20585;-69
2022/09/26 05:23:04;;;;;;;14.07;8.63;;;10.60;99.90;;;;;;5073078;28;20123;-70
2022/09/26 05:28:21;;;;;;;10.10;7.97;;;10.60;99.90;;;;;;5055447;28;20048;-70
2022/09/26 05:30:46;;;;;;;10.43;8.23;;;10.60;99.90;;;;;;5073160;28;20392;-70
2022/09/26 05:33:12;;;;;;;11.15;8.27;;;10.60;99.90;;;;;;5073030;28;20070;-70
2022/09/26 05:35:39;;;;;;;10.32;7.65;;;10.60;99.90;;;;;;5072883;28;20083;-70
2022/09/26 05:38:04;;;;;;;7.80;6.85;;;10.40;99.90;;;;;;5073363;28;20453;-70
2022/09/26 05:43:15;;;;;;;11.48;7.40;;;10.60;99.90;;;;;;5055185;28;20495;-70
2022/09/26 05:45:41;;;;;;;8.15;7.30;;;10.70;99.90;;;;;;5073069;28;20076;-71
2022/09/26 05:48:07;;;;;;;10.35;7.25;;;10.60;99.90;;;;;;5038370;28;20044;-71
2022/09/26 05:50:34;;;;;;;10.55;6.85;;;10.70;99.90;;;;;;5073192;28;20119;-70
2022/09/26 05:53:01;;;;;;;11.13;6.90;;;10.70;99.90;;;;;;5073153;28;20123;-70
2022/09/26 05:55:28;;;;;;;7.32;6.63;;;10.70;99.90;;;;;;5073243;28;20036;-70
2022/09/26 05:57:57;;;;;;;8.15;6.65;;;10.70;99.90;;;;;;5073116;28;20106;-70
2022/09/26 06:00:23;;;;;;;8.15;6.85;;;10.80;99.90;;;;;;5073167;28;20407;-70
2022/09/26 06:02:57;;;;;;;7.22;6.07;;;10.70;99.90;;;;;;5072758;28;20098;-69
2022/09/26 06:05:24;;;;;;;9.55;6.82;;;10.70;99.90;;;;;;5073180;28;20045;-70
2022/09/26 06:07:51;;;;;;;10.60;6.90;;;10.70;99.90;;;;;;5073006;28;20163;-70
2022/09/26 06:10:19;;;;;;;11.97;6.43;;;11.10;99.90;;;;;;5073049;28;20811;-70
2022/09/26 06:12:45;;;;;;;6.93;6.22;;;10.90;99.90;;;;;;5072738;28;20483;-70
2022/09/26 06:15:10;;;;;;;8.18;6.18;;;10.90;99.90;;;;;;5072671;28;20047;-71
2022/09/26 06:17:36;;;;;;;7.88;6.10;;;10.90;99.90;;;;;;5072915;28;20063;-70
2022/09/26 06:20:03;;;;;;;9.63;6.50;;;10.90;99.90;;;;;;5054787;28;20120;-70
2022/09/26 06:22:29;;;;;;;7.72;5.78;;;10.90;99.90;;;;;;5072603;28;20047;-70
2022/09/26 06:24:54;;;;;;;8.48;6.32;;;11.10;99.90;;;;;;5072912;28;20128;-70
2022/09/26 06:27:21;;;;;;;10.15;6.05;;;10.90;99.90;;;;;;5072654;28;20036;-70
2022/09/26 06:29:47;;;;;;;6.97;5.32;;;11.00;99.90;;;;;;5072872;28;20052;-71
2022/09/26 06:32:13;;;;;;;5.78;5.18;;;10.80;99.90;;;;;;5054619;28;20040;-70
2022/09/26 06:34:38;;;;;;;8.98;5.65;;;10.90;99.90;;;;;;5072649;28;20399;-70
2022/09/26 06:37:04;;;;;;;6.93;5.63;;;10.80;99.90;;;;;;5072715;28;20120;-70
2022/09/26 06:39:34;;;;;;;7.60;5.60;;;10.80;99.90;;;;;;5075120;28;20047;-70
2022/09/26 06:42:06;;;;;;;6.47;5.07;;;11.00;99.90;;;;;;5075969;28;20066;-70
2022/09/26 06:44:32;;;;;;;8.00;5.18;;;10.80;99.90;;;;;;5075901;28;20080;-70
2022/09/26 06:47:01;;;;;;;6.13;5.10;;;10.80;99.90;;;;;;5076185;28;20094;-70
2022/09/26 06:49:27;;;;;;;6.80;4.65;;;10.70;99.90;;;;;;5076071;28;20040;-70
2022/09/26 06:51:53;;;;;;;7.72;5.28;;;10.90;99.90;;;;;;5057985;28;20094;-70
2022/09/26 06:54:19;;;;;;;6.45;5.00;;;10.80;99.90;;;;;;5075964;28;20075;-70
2022/09/26 06:56:45;;;;;;;7.95;4.70;;;10.80;99.90;;;;;;5075844;28;20514;-70
2022/09/26 06:59:11;;;;;;;5.18;4.63;;;10.80;99.90;;;;;;5057794;28;20483;-70
2022/09/26 07:01:37;;;;;;;7.85;4.22;;;11.00;99.90;;;;;;5076066;28;20052;-70
2022/09/26 07:04:03;;;;;;;6.00;4.10;;;11.10;99.90;;;;;;5075859;28;20044;-70
2022/09/26 07:06:30;;;;;;;7.10;4.20;;;;;;;;;;5075792;28;20047;-71
2022/09/26 07:08:55;;;;;;;5.80;4.43;;;11.60;99.90;;;;;;5075686;28;20060;-71
2022/09/26 07:11:21;;;;;;;8.85;3.80;;;11.20;99.90;;;;;;5075582;28;20041;-70
2022/09/26 07:13:47;;;;;;;9.23;3.90;;;11.20;99.90;;;;;;5075449;28;20067;-70
2022/09/26 07:16:13;;;;;;;6.60;3.95;;;11.30;99.90;;;;;;5057795;28;20475;-70
2022/09/26 07:18:39;;;;;;;5.05;3.60;;;11.40;99.90;;;;;;5075655;28;20079;-70
2022/09/26 07:21:05;;;;;;;4.93;3.75;;;11.40;99.90;;;;;;5075600;28;20032;-70
2022/09/26 07:23:31;;;;;;;5.32;3.60;;;11.40;99.90;;;;;;5075946;28;20033;-70
2022/09/26 07:25:57;;;;;;;7.22;4.20;;;11.50;99.90;;;;;;5057553;28;20045;-70
2022/09/26 07:28:24;;;;;;;4.72;3.60;;;11.40;99.90;;;;;;5075263;28;20044;-70
2022/09/26 07:30:53;;;;;;;4.30;3.53;;;11.40;99.90;;;;;;5075254;28;20048;-70
2022/09/26 07:33:19;;;;;;;5.82;3.60;;;11.40;99.90;;;;;;5075340;28;20083;-70
2022/09/26 07:35:47;;;;;;;7.10;3.90;;;11.30;99.90;;;;;;5075228;28;20084;-71
2022/09/26 07:38:13;;;;;;;5.80;3.65;;;11.30;99.90;;;;;;5075238;28;20055;-70
2022/09/26 07:40:39;;;;;;;6.65;3.60;;;11.30;99.90;;;;;;5074751;28;20044;-70
2022/09/26 07:43:05;;;;;;;5.45;3.70;;;11.30;99.90;;;;;;5075218;28;20044;-70
2022/09/26 07:50:59;;;;;;;7.10;3.95;;;11.30;99.90;;;;;;5073744;28;20423;-70
2022/09/26 07:53:26;;;;;;;6.03;3.85;;;11.40;99.90;;;;;;5074705;28;20566;-70
2022/09/26 07:56:05;;;;;;;4.20;3.10;;;11.40;99.90;;;;;;5074973;28;20411;-70
2022/09/26 07:58:37;;;;;;;5.47;3.78;;;11.40;99.90;;;;;;5074831;28;20048;-70
2022/09/26 08:01:04;;;;;;;6.10;3.33;;;11.30;99.90;;;;;;5074994;28;20049;-70
2022/09/26 08:03:29;;;;;;;4.80;3.45;;;11.40;99.90;;;;;;5074555;28;20089;-70
2022/09/26 08:05:58;;;;;;;6.32;3.97;;;11.30;99.90;;;;;;5074442;28;20135;-70
2022/09/26 08:08:24;;;;;;;7.07;3.70;;;11.30;99.90;;;;;;5074612;28;20056;-70
2022/09/26 08:10:50;;;;;;;7.97;3.60;;;11.30;99.90;;;;;;5074588;28;20032;-70
2022/09/26 08:13:15;;;;;;;5.82;3.63;;;11.30;99.90;;;;;;5056741;28;20064;-70
2022/09/26 08:15:41;;;;;;;4.20;3.58;;;11.40;99.90;;;;;;5074379;28;20044;-71
2022/09/26 08:18:07;;;;;;;5.97;3.72;;;11.40;99.90;;;;;;5074288;28;20032;-70
2022/09/26 08:20:33;;;;;;;5.05;3.47;;;11.40;99.90;;;;;;5056289;28;20090;-71
2022/09/26 08:22:59;;;;;;;6.43;3.97;;;11.60;99.90;;;;;;5074049;28;20549;-71
2022/09/26 08:25:25;;;;;;;7.22;3.75;;;11.60;99.90;;;;;;5074367;28;20049;-70
2022/09/26 08:27:52;;;;;;;6.32;4.00;;;11.70;99.90;;;;;;5074179;28;20083;-70
2022/09/26 08:30:18;;;;;;;4.70;3.75;;;11.90;99.90;;;;;;5074120;28;20049;-70
2022/09/26 08:32:53;;;;;;;5.93;3.53;;;12.00;99.90;;;;;;5074833;28;20068;-70
2022/09/26 08:35:19;;;;;;;4.85;3.40;;;12.20;99.90;;;;;;5076217;28;20098;-70
2022/09/26 08:37:45;;;;;;;4.05;3.65;;;12.40;99.90;;;;;;5074037;28;20376;-70
2022/09/26 08:40:11;;;;;;;5.25;3.92;;;12.50;99.90;;;;;;5074110;28;20040;-70
2022/09/26 08:43:05;;;;;;;5.13;3.13;;;12.50;99.90;;;;;;5073809;28;20469;-70
2022/09/26 08:48:50;;;;;;;6.63;3.40;;;12.50;99.90;;;;;;5073838;28;20052;-70
2022/09/26 08:51:22;;;;;;;4.90;3.63;;;12.40;99.90;;;;;;5055737;28;20438;-70
2022/09/26 08:54:01;;;;;;;5.07;3.28;;;12.50;99.90;;;;;;5073843;28;20450;-70
2022/09/26 08:56:44;;;;;;;7.32;3.75;;;12.40;99.90;;;;;;5073656;28;20049;-70
2022/09/26 08:59:24;;;;;;;5.43;3.20;;;12.30;99.90;;;;;;5073648;28;20052;-70
2022/09/26 09:01:53;;;;;;;4.65;3.50;;;12.30;99.90;;;;;;5073099;28;20050;-70
2022/09/26 09:04:43;;;;;;;6.05;3.65;;;12.20;99.90;;;;;;5073589;28;20414;-70
2022/09/26 09:07:35;;;;;;;5.32;3.65;;;12.30;99.90;;;;;;5073348;28;20506;-70
2022/09/26 09:10:06;;;;;;;3.70;3.25;;;12.30;99.90;;;;;;5068755;28;20052;-70
2022/09/26 09:12:47;;;;;;;5.20;3.33;;;12.30;99.90;;;;;;5073484;28;20078;-70
2022/09/26 09:15:36;;;;;;;5.90;3.22;;;12.40;99.90;;;;;;5038810;28;20051;-70
2022/09/26 09:18:05;;;;;;;4.80;3.58;;;12.40;99.90;;;;;;5073397;28;20047;-70
2022/09/26 09:20:55;;;;;;;7.38;3.80;;;12.50;99.90;;;;;;5055431;28;20407;-70
2022/09/26 09:23:36;;;;;;;7.32;4.10;;;12.50;99.90;;;;;;5025090;28;20132;-70
2022/09/26 09:26:12;;;;;;;6.53;3.42;;;12.50;99.90;;;;;;5073404;28;20102;-70
2022/09/26 09:28:53;;;;;;;5.18;3.67;;;12.60;99.90;;;;;;5073446;28;20045;-70
2022/09/26 09:31:20;;;;;;;4.57;3.55;;;12.60;99.90;;;;;;5073187;28;20045;-71
2022/09/26 09:33:54;;;;;;;6.80;3.90;;;12.60;99.90;;;;;;5073528;28;20051;-70
2022/09/26 09:36:38;;;;;;;8.75;3.80;;;12.60;99.90;;;;;;5073179;28;20491;-70
2022/09/26 09:39:06;;;;;;;7.28;3.60;;;12.60;99.90;;;;;;5055420;28;20088;-74
2022/09/26 09:41:55;;;;;;;5.43;3.72;;;12.70;99.90;;;;;;5072907;28;20084;-71
2022/09/26 09:44:32;;;;;;;5.57;3.95;;;12.60;99.90;;;;;;5073231;28;20045;-70
2022/09/26 09:46:59;;;;;;;4.80;3.55;;;12.50;99.90;;;;;;5073164;28;20045;-70
2022/09/26 09:49:25;;;;;;;6.80;3.90;;;12.50;99.90;;;;;;5072980;28;20514;-70
2022/09/26 09:52:18;;;;;;;6.82;3.63;;;12.50;99.90;;;;;;5073027;28;20037;-70
2022/09/26 09:55:18;;;;;;;6.57;3.65;;;12.30;99.90;;;;;;5073235;28;20049;-71
2022/09/26 09:58:02;;;;;;;6.45;3.90;;;12.30;99.90;;;;;;5073166;28;20044;-70
2022/09/26 10:00:28;;;;;;;8.02;3.83;;;12.30;99.90;;;;;;5072824;28;20055;-71
2022/09/26 10:03:19;;;;;;;10.20;4.05;;;12.30;99.90;;;;;;5072968;28;20052;-70
2022/09/26 10:05:49;;;;;;;5.72;3.38;;;12.30;99.90;;;;;;5072852;28;20055;-70
2022/09/26 10:08:18;;;;;;;5.68;4.05;;;12.20;99.90;;;;;;5072793;28;20063;-70
2022/09/26 10:11:04;;;;;;;6.03;3.45;;;12.10;99.90;;;;;;5072663;28;20048;-71
2022/09/26 10:13:31;;;;;;;5.82;3.53;;;12.10;99.90;;;;;;5074062;28;20048;-71
2022/09/26 10:16:07;;;;;;;7.30;4.00;;;12.10;99.90;;;;;;5076721;28;20041;-71
2022/09/26 10:19:05;;;;;;;5.90;4.03;;;12.10;99.90;;;;;;5076642;28;20090;-71
2022/09/26 10:21:38;;;;;;;10.13;3.92;;;12.10;99.90;;;;;;5076821;28;20045;-71
2022/09/26 10:24:06;;;;;;;9.35;4.35;;;12.10;99.90;;;;;;5076666;28;20047;-71
2022/09/26 10:26:35;;;;;;;;;;;12.10;99.90;;;;;;5076684;28;20050;-71
2022/09/26 10:29:32;;;;;;;7.40;3.95;;;12.10;99.90;;;;;;5076778;28;20436;-71
2022/09/26 10:32:01;;;;;;;4.93;4.43;;;12.10;99.90;;;;;;5076415;28;20135;-71
2022/09/26 10:34:29;;;;;;;8.18;4.53;;;12.20;99.90;;;;;;5076353;28;20041;-71
2022/09/26 10:36:55;;;;;;;7.72;4.35;;;12.20;99.90;;;;;;5076659;28;20033;-71
2022/09/26 10:42:17;;;;;;;6.40;4.35;;;12.20;99.90;;;;;;5075947;28;20049;-71
2022/09/26 10:44:44;;;;;;;5.25;3.63;;;12.30;99.90;;;;;;5076044;28;20510;-70
2022/09/26 10:47:20;;;;;;;4.88;3.53;;;12.30;99.90;;;;;;5076220;28;20407;-71
2022/09/26 10:49:53;;;;;;;5.88;3.72;;;12.30;99.90;;;;;;5058115;28;20087;-71
2022/09/26 10:52:28;;;;;;;6.90;4.00;;;12.30;99.90;;;;;;5075923;28;20127;-71
2022/09/26 10:55:03;;;;;;;7.47;4.40;;;12.30;99.90;;;;;;5076173;28;20037;-71
2022/09/26 10:57:44;;;;;;;6.57;4.10;;;12.40;99.90;;;;;;5076051;28;20119;-71
2022/09/26 11:00:36;;;;;;;6.60;4.03;;;12.30;99.90;;;;;;5075849;28;20040;-71
2022/09/26 11:03:13;;;;;;;11.52;4.18;;;12.30;99.90;;;;;;5075952;28;20046;-72
2022/09/26 11:06:01;;;;;;;5.97;4.03;;;12.30;99.90;;;;;;5076013;28;20044;-70
2022/09/26 11:08:28;;;;;;;6.30;4.28;;;12.30;99.90;;;;;;5075908;28;20290;-71
2022/09/26 11:10:59;;;;;;;7.60;4.73;;;12.20;99.90;;;;;;5075712;28;20068;-71
2022/09/26 11:13:27;;;;;;;7.00;4.60;;;12.20;99.90;;;;;;5075630;28;20068;-70
2022/09/26 11:16:06;;;;;;;6.50;4.35;;;12.10;99.90;;;;;;5075659;28;20499;-71
2022/09/26 11:18:43;;;;;;;7.63;4.82;;;12.10;99.90;;;;;;5075689;28;20044;-71
2022/09/26 11:21:42;;;;;;;7.85;5.18;;;12.20;99.90;;;;;;5075508;28;20485;-71
2022/09/26 11:24:36;;;;;;;6.38;5.00;;;12.20;99.90;;;;;;5075266;28;20044;-71
2022/09/26 11:27:10;;;;;;;8.70;5.10;;;12.30;99.90;;;;;;5075526;28;20119;-71
2022/09/26 11:29:54;;;;;;;7.65;5.15;;;12.40;99.90;;;;;;5075244;28;20490;-71
2022/09/26 11:32:39;;;;;;;6.25;4.43;;;12.30;99.90;;;;;;5075497;28;20044;-71
2022/09/26 11:35:11;;;;;;;6.90;4.13;;;12.30;99.90;;;;;;5075435;28;20101;-71
2022/09/26 11:38:17;;;;;;;9.13;4.40;;;12.30;99.90;;;;;;5075262;28;20126;-71
2022/09/26 11:41:06;;;;;;;5.53;3.85;;;12.30;99.90;;;;;;5057186;28;20480;-71
2022/09/26 11:43:55;;;;;;;6.97;4.40;;;12.20;99.90;;;;;;5040467;28;20047;-71
2022/09/26 11:46:33;;;;;;;3.90;3.60;;;12.30;99.90;;;;;;5075304;28;20083;-71
2022/09/26 11:49:24;;;;;;;8.35;4.20;;;12.30;99.90;;;;;;5075111;28;20048;-70
2022/09/26 11:52:16;;;;;;;7.22;4.30;;;12.30;99.90;;;;;;5074947;28;20036;-71
2022/09/26 11:54:58;;;;;;;5.70;4.13;;;12.20;99.90;;;;;;5074826;28;20546;-71
2022/09/26 11:57:43;;;;;;;5.95;3.88;;;12.30;99.90;;;;;;5074759;28;20131;-71
2022/09/26 12:00:23;;;;;;;5.32;3.95;;;12.30;99.90;;;;;;5074789;28;20149;-71
2022/09/26 12:03:19;;;;;;;5.32;3.80;;;12.30;99.90;;;;;;5074968;28;20123;-70
2022/09/26 12:05:53;;;;;;;4.93;3.97;;;12.30;99.90;;;;;;5056887;28;20131;-71
2022/09/26 12:08:46;;;;;;;4.47;3.22;;;12.40;99.90;;;;;;5056935;28;20119;-70
2022/09/26 12:11:32;;;;;;;6.68;3.85;;;12.40;99.90;;;;;;5074519;28;20127;-70
2022/09/26 12:14:33;;;;;;;3.72;3.00;;;12.40;99.90;;;;;;5074720;28;20048;-70
2022/09/26 12:17:42;;;;;;;4.38;3.10;;;12.40;99.90;;;;;;5074445;28;20059;-70
2022/09/26 12:20:42;;;;;;;3.90;3.00;;;12.30;99.90;;;;;;5062492;28;20055;-70
2022/09/26 12:23:17;;;;;;;4.28;2.92;;;12.40;99.90;;;;;;5074545;28;20045;-70
2022/09/26 12:25:55;;;;;;;3.70;3.20;;;12.30;99.90;;;;;;5074589;28;20049;-70
2022/09/26 12:28:50;;;;;;;4.00;2.92;;;12.30;99.90;;;;;;5074606;28;20348;-70
2022/09/26 12:31:37;;;;;;;7.10;3.00;;;12.30;99.90;;;;;;5074198;28;20093;-69
2022/09/26 12:34:09;;;;;;;;;;;12.30;99.90;;;;;;5074624;28;20434;-70
2022/09/26 12:36:56;;;;;;;3.38;2.80;;;12.30;99.90;;;;;;5073144;28;20038;-70
2022/09/26 12:39:58;;;;;;;3.38;2.83;;;12.30;99.90;;;;;;5074139;28;20395;-69
2022/09/26 12:42:59;;;;;;;3.40;3.10;;;12.30;99.90;;;;;;5073760;28;20084;-70
2022/09/26 12:45:57;;;;;;;3.63;3.33;;;12.40;99.90;;;;;;5073979;28;20444;-69
2022/09/26 12:48:40;;;;;;;3.28;2.95;;;12.40;99.90;;;;;;5074132;28;20048;-70
2022/09/26 12:51:28;;;;;;;3.03;2.75;;;12.40;99.90;;;;;;5073567;28;20055;-70
2022/09/26 12:53:57;;;;;;;3.90;2.70;;;12.40;99.90;;;;;;5073886;28;20134;-70
2022/09/26 12:56:47;;;;;;;3.20;2.90;;;12.40;99.90;;;;;;5073817;28;20047;-70
2022/09/26 12:59:34;;;;;;;2.67;2.30;;;12.50;99.90;;;;;;5073711;28;20439;-70
2022/09/26 13:02:32;;;;;;;4.75;2.45;;;12.50;99.90;;;;;;5073975;28;20051;-70
2022/09/26 13:05:06;;;;;;;2.30;2.10;;;12.50;99.90;;;;;;5055594;28;20579;-70
2022/09/26 13:07:48;;;;;;;2.88;2.35;;;12.50;99.90;;;;;;5073571;28;20080;-70
2022/09/26 13:10:46;;;;;;;2.50;2.30;;;12.40;99.90;;;;;;5073695;28;20449;-69
2022/09/26 13:13:46;;;;;;;2.50;2.08;;;12.40;99.90;;;;;;5073526;28;20112;-69
2022/09/26 13:16:35;;;;;;;3.10;2.65;;;12.40;99.90;;;;;;5073271;28;20388;-69
2022/09/26 13:19:21;;;;;;;2.88;2.20;;;12.40;99.90;;;;;;5073489;28;20084;-70
2022/09/26 13:22:00;;;;;;;2.40;2.20;;;12.30;99.90;;;;;;5073410;28;20128;-69
2022/09/26 13:24:45;;;;;;;2.30;2.10;;;12.40;99.90;;;;;;5073036;28;20045;-70
2022/09/26 13:27:19;;;;;;;3.35;2.05;;;12.40;99.90;;;;;;5073422;28;20098;-70
2022/09/26 13:29:52;;;;;;;2.90;2.00;;;12.40;99.90;;;;;;5073381;28;20045;-70
2022/09/26 13:32:54;;;;;;;2.28;2.08;;;12.40;99.90;;;;;;5073300;28;20049;-70
2022/09/26 13:35:19;;;;;;;2.33;2.05;;;12.40;99.90;;;;;;5073427;28;20094;-70
2022/09/26 13:38:08;;;;;;;3.28;1.90;;;12.40;99.90;;;;;;5073350;28;20044;-69
2022/09/26 13:40:59;;;;;;;3.38;2.22;;;12.50;99.90;;;;;;5073075;28;20052;-69